Nearby METAR Reports

 

KAWO - Arlington Muni, Washington, USA
Distance from station: WSW 26mi, 42km
Updated: Fri, 24-Oct-2014 4:35pm PDT
Clear
Clear
 Wind from NNW
Wind: NNW 6 mph , 9 km/h
Temperature: 55°F , 13°C
Dew Point: 48°F , 9°C
Humidity: 77%
Barometer: 29.93 inHg , 1013.5 hPa
Clouds: Clear
Visibility: 10 miles , 16 km
2014/10/24 23:35 KAWO 242335Z AUTO 34005KT 10SM CLR 13/09 A2993 RMK AO1
KPAE - Everett, Washington, USA
Distance from station: SW 39mi, 62km
Updated: Fri, 24-Oct-2014 3:53pm PDT
Clear
Clear
 Wind from N
Wind: N 5 mph , 7 km/h
Temperature: 54°F , 12°C
Dew Point: 45°F , 7°C
Humidity: 72%
Barometer: 29.95 inHg , 1014.2 hPa
Clouds: Clear
Visibility: 10 miles , 16 km
2014/10/24 22:53 KPAE 242253Z 35004KT 10SM CLR 12/07 A2995 RMK AO2 SLP143 T01220072
 
KBVS - Burlington/Mt V, Washington, USA
Distance from station: WNW 40mi, 64km
Updated: Fri, 24-Oct-2014 4:35pm PDT
Clear
Clear
 Wind from NNW
Wind: NNW 5 mph , 7 km/h
Barometer: 29.95 inHg , 1014.2 hPa
Clouds: Clear
Visibility: 10 miles , 16 km
2014/10/24 23:35 KBVS 242335Z AUTO 33004KT 10SM CLR A2995 RMK A01 P000
KNUW - Whidbey Is. Nas, Washington, USA
Distance from station: W 48mi, 78km
Updated: Fri, 24-Oct-2014 3:56pm PDT
Mostly cloudy
Mostly cloudy
 Wind from N
Wind: N 7 mph , 11 km/h
Temperature: 55°F , 13°C
Dew Point: 46°F , 8°C
Humidity: 72%
Barometer: 29.96 inHg , 1014.6 hPa
Clouds: Mostly cloudy
Visibility: 10 miles , 16 km
Cloud details: Partly cloudy 3500 ft
Mostly cloudy 12000 ft
Mostly cloudy 24000 ft
2014/10/24 22:56 KNUW 242256Z 35006KT 10SM SCT035 BKN120 BKN240 13/08 A2996 RMK AO2 SLP148 T01330083 $
 
KBLI - Bellingham, Washington, USA
Distance from station: NW 57mi, 91km
Updated: Fri, 24-Oct-2014 3:53pm PDT
Clear
Clear
 Wind from N
Wind: N 12 mph , 19 km/h
Temperature: 55°F , 13°C
Dew Point: 45°F , 7°C
Humidity: 67%
Barometer: 29.96 inHg , 1014.6 hPa
Clouds: Clear
Visibility: 10 miles , 16 km
2014/10/24 22:53 KBLI 242253Z 01010KT 10SM CLR 13/07 A2996 RMK AO2 SLP153 T01280067
KBFI - Seattle/Boeing, Washington, USA
Distance from station: SW 58mi, 94km
Updated: Fri, 24-Oct-2014 3:53pm PDT
Overcast
Overcast
 Wind from WNW
Wind: WNW 6 mph , 9 km/h
Temperature: 57°F , 14°C
Dew Point: 48°F , 9°C
Humidity: 72%
Barometer: 29.93 inHg , 1013.5 hPa
Clouds: Overcast
Visibility: 10 miles , 16 km
Cloud details: Overcast 12000 ft
2014/10/24 22:53 KBFI 242253Z 30005KT 10SM OVC120 14/09 A2993 RMK AO2 SLP136 T01440089